Aérodrome :
LOGIN :

S'inscrire | Disclaimer

   EN    FR    IT 

 










Légende :    VFR   VFR Marginal   IFR   IFR Intensif   IFR Très Intensif
Visi : 
Plafond : 
>= 8 km
>= 3000ft
5 à 8 km
1000 à 3000 ft
1500m à 5 km
500 à 1000 ft
800 à 1500m
200 à 500 ft
< 800m
< 200 ft
Symboles :   Orages  Brouillard  Fortes neiges  Fortes précipitations  Vent > 20 kt
SIGMETs :   Divers  Orages  Givrage  Turbulence  Onde Orograph.  Cendres Volcan.






- Altitude de l'aérodrome : 405 ft
- Code IATA : ODH


EGVO - RAF Odiham

DERNIER METAR :
  • 221120Z 01011KT 9999 SCT032 BKN070 14/07 Q1020 NOSIG RMK BLU BLU

METARs EXPIRÉS :
  • 221050Z 02014KT 9999 FEW034 BKN070 14/06 Q1020 NOSIG RMK BLU BLU
  • 221020Z 01016KT 9999 FEW030 BKN070 14/07 Q1020 NOSIG RMK BLU BLU
  • 220950Z 02015KT 9999 FEW030 BKN250 13/07 Q1020 NOSIG RMK BLU BLU
  • 220910Z 02012KT 9999 FEW022 SCT080 BKN250 12/07 Q1020 NOSIG RMK BLU BLU
  • 220850Z 02012KT 9999 -RA SCT022 SCT080 BKN100 12/08 Q1020 BECMG FEW025 RMK WHT BECMG BLU

TAF TAF EGVO
Valide du 22 à 12h jusqu'au 23 à 00h UTC


221031Z 2212/2224 01014KT 9999 SCT040



MET'MAP, la Météo Aéronautique d'un coup d'oeil ! - Copyright ORBIFLY Décembre 2007 - Disclaimer

ORBIFLY MET'MAP TEAM :

Programmation & Développement : Alexandra Zaïnal
Sur une idée originale de : Baudouin d'Aumeries
Assistance à la programmation : Marc-Olivier Méhu
Soutien technique & logistique : Manuel Goepfert

Contact : metmap@orbifly.com




SOURCES & CREDITS :

   NOAA